Detalii statie RANDUNICA PREST ANDRID [00001984]

Toti senzorii

Date Temperatura solului [C]Precipitatii [mm]Voltaj baterie [mV]Leaf Wetness [Min]HC Air temperature [C]HC Relative humidity [%]Punctul de roua [C]
medieminmaxsumaultimatimpmedieminmaxmediemediemin
2017-06-25 06:00:00 21.4 21.2 21.6 0 6864 17.56 16.67 18.33 0 0 0
2017-06-25 07:00:00 21.3 21.2 21.5 0 6904 18.31 18.06 18.76 0 0 0
2017-06-25 08:00:00 21.3 21.2 21.5 0 6962 21.53 19.56 23.55 0 0 0
2017-06-25 09:00:00 21.5 21.4 21.7 0 7148 25.1 23.95 26.39 0 0 0
2017-06-25 10:00:00 21.9 21.7 22.2 0 7158 26.89 23.82 28.34 0 0 0
2017-06-25 11:00:00 22.3 22.1 22.5 0 7246 24.28 22.69 25.06 0 0 0
2017-06-25 12:00:00 22.4 22.3 22.7 0 7264 26.22 24.94 27.23 0 0 0
2017-06-25 13:00:00 23 22.6 23.4 0 7254 28.5 26.52 29.49 0 0 0
2017-06-25 14:00:00 23.6 23.3 24.1 0 7254 30.95 29.79 32.6 0 0 0
2017-06-25 15:00:00 24.4 24.1 24.7 3 7070 26.92 20.95 31.11 0 0 0
2017-06-25 16:00:00 24.3 24.2 24.5 0.4 7254 22.63 21.17 24.55 0 0 0
2017-06-25 17:00:00 24.4 24.3 24.5 0 7254 24.57 23.82 25.79 0 0 0
2017-06-25 18:00:00 24.4 24.4 24.6 0 7264 26.95 25.72 27.59 0 0 0
2017-06-25 19:00:00 24.5 24.5 24.6 0 7158 27.06 26.67 27.43 0 0 0
2017-06-25 20:00:00 24.4 24.2 24.6 0 7000 25.62 24.36 26.6 0 0 0
2017-06-25 21:00:00 24.3 24.1 24.5 1 6962 23.08 22.16 24.1 0 0 0
2017-06-25 22:00:00 23.9 23.9 24.1 0.4 6932 21.32 20.73 22.16 0 0 0
2017-06-25 23:00:00 23.7 23.5 23.9 2.6 6894 19.85 19.16 20.61 0 0 0
2017-06-26 00:00:00 23.3 23.1 23.6 2 6884 18.95 18.84 19.15 0 0 0
2017-06-26 01:00:00 23 22.9 23.2 0.6 6874 18.97 18.82 19.21 0 0 0
2017-06-26 02:00:00 22.7 22.3 23 1.6 6874 18.61 18.46 18.72 0 0 0
2017-06-26 03:00:00 22.3 22.3 22.3 1.4 6864 18.34 18.28 18.46 0 0 0
2017-06-26 04:00:00 22.1 22 22.3 1 6854 18.35 18.31 18.51 0 0 0
2017-06-26 05:00:00 22 21.9 22.1 0.8 6864 18.25 18.16 18.34 0 0 0
2017-06-26 06:00:00 21.9 21.9 22.1 0.6 6854 18.35 18.18 18.54 0 0 0
2017-06-26 07:00:00 21.7 21.7 21.9 0.4 6904 18.97 18.62 19.3 0 0 0
2017-06-26 08:00:00 21.8 21.7 21.9 0.2 6942 19.73 19.16 20.02 0 0 0
2017-06-26 09:00:00 21.9 21.8 22.1 0.2 7148 21.41 19.9 22.99 0 0 0
2017-06-26 10:00:00 22.3 22.1 22.6 0 7264 22.88 21.73 24.4 0 0 0
2017-06-26 11:00:00 22.8 22.4 23 0 7226 24.13 23.28 24.9 0 0 0
2017-06-26 12:00:00 23.3 23.2 23.8 0 7206 25.37 24.58 26.2 0 0 0
2017-06-26 13:00:00 23.9 23.7 24.3 0 7254 26.01 25.12 26.98 0 0 0
2017-06-26 14:00:00 24.5 24.3 24.7 0 7274 25.33 23.67 27.4 0 0 0
2017-06-26 15:00:00 24.9 24.6 25.2 0 7264 26.95 26.14 27.6 0 0 0
2017-06-26 16:00:00 25.4 25.2 25.6 0 7264 27.02 26.35 27.47 0 0 0
2017-06-26 17:00:00 25.5 25.4 25.6 0 7274 26.51 26.06 26.82 0 0 0
2017-06-26 18:00:00 25.4 25.3 25.5 0 7264 26.05 24.78 27.05 0 0 0
2017-06-26 19:00:00 25.2 25.1 25.5 0 7246 25.04 24.4 25.93 0 0 0
2017-06-26 20:00:00 25 24.9 25.2 0 7030 23.39 22.83 24.06 0 0 0
2017-06-26 21:00:00 24.6 24.5 24.8 0 6942 21.62 20.97 22.63 0 0 0
2017-06-26 22:00:00 24.3 24.1 24.6 0 6914 20.19 19.78 20.8 0 0 0
2017-06-26 23:00:00 24 23.9 24.2 0 6884 19.28 18.82 19.94 0 0 0
2017-06-27 00:00:00 23.7 23.5 24 0 6884 19.34 19.17 19.45 0 0 0
2017-06-27 01:00:00 23.4 23.3 23.7 0 6884 19.55 19.36 19.72 0 0 0